sensor_id;sensor_type;location;lat;lon;timestamp;P1;P2;P0
51258;PMS7003;37327;54.254;18.504;2023-02-13T00:00:13;0;0;0
51258;PMS7003;37327;54.254;18.504;2023-02-13T00:03:25;0;0;0
51258;PMS7003;37327;54.254;18.504;2023-02-13T00:06:32;0;0;0
51258;PMS7003;37327;54.254;18.504;2023-02-13T00:09:39;0;0;0
51258;PMS7003;37327;54.254;18.504;2023-02-13T00:12:46;0;0;0
51258;PMS7003;37327;54.254;18.504;2023-02-13T00:15:56;0;0;0
51258;PMS7003;37327;54.254;18.504;2023-02-13T00:19:04;0;0;0
51258;PMS7003;37327;54.254;18.504;2023-02-13T00:22:11;0;0;0
51258;PMS7003;37327;54.254;18.504;2023-02-13T00:25:21;0;0;0
51258;PMS7003;37327;54.254;18.504;2023-02-13T00:28:27;0;0;0
51258;PMS7003;37327;54.254;18.504;2023-02-13T00:31:34;0;0;0
51258;PMS7003;37327;54.254;18.504;2023-02-13T00:34:41;1;0;0
51258;PMS7003;37327;54.254;18.504;2023-02-13T00:37:49;0;0;0
51258;PMS7003;37327;54.254;18.504;2023-02-13T00:40:55;0;0;0
51258;PMS7003;37327;54.254;18.504;2023-02-13T00:44:02;0;0;0
51258;PMS7003;37327;54.254;18.504;2023-02-13T00:47:09;0;0;0
51258;PMS7003;37327;54.254;18.504;2023-02-13T00:50:19;0;0;0
51258;PMS7003;37327;54.254;18.504;2023-02-13T00:53:26;0;0;0
51258;PMS7003;37327;54.254;18.504;2023-02-13T00:56:33;0;0;0
51258;PMS7003;37327;54.254;18.504;2023-02-13T00:59:40;0;0;0
51258;PMS7003;37327;54.254;18.504;2023-02-13T01:02:47;0;0;0
51258;PMS7003;37327;54.254;18.504;2023-02-13T01:05:54;0;0;0
51258;PMS7003;37327;54.254;18.504;2023-02-13T01:09:03;0;0;0
51258;PMS7003;37327;54.254;18.504;2023-02-13T01:12:09;0;0;0
51258;PMS7003;37327;54.254;18.504;2023-02-13T01:15:17;0;0;0
51258;PMS7003;37327;54.254;18.504;2023-02-13T01:18:24;0;0;0
51258;PMS7003;37327;54.254;18.504;2023-02-13T01:21:32;0;0;0
51258;PMS7003;37327;54.254;18.504;2023-02-13T01:24:39;0;0;0
51258;PMS7003;37327;54.254;18.504;2023-02-13T01:27:46;0;0;0
51258;PMS7003;37327;54.254;18.504;2023-02-13T01:30:54;0;0;0
51258;PMS7003;37327;54.254;18.504;2023-02-13T01:34:03;0;0;0
51258;PMS7003;37327;54.254;18.504;2023-02-13T01:37:09;0;0;0
51258;PMS7003;37327;54.254;18.504;2023-02-13T01:40:16;0;0;0
51258;PMS7003;37327;54.254;18.504;2023-02-13T01:43:25;0;0;0
51258;PMS7003;37327;54.254;18.504;2023-02-13T01:46:41;0;0;0
51258;PMS7003;37327;54.254;18.504;2023-02-13T01:49:49;1;0;0
51258;PMS7003;37327;54.254;18.504;2023-02-13T01:53:06;0;0;0
51258;PMS7003;37327;54.254;18.504;2023-02-13T01:56:22;0;0;0
51258;PMS7003;37327;54.254;18.504;2023-02-13T01:59:43;0;0;0
51258;PMS7003;37327;54.254;18.504;2023-02-13T02:02:56;0;0;0
51258;PMS7003;37327;54.254;18.504;2023-02-13T02:06:11;0;0;0
51258;PMS7003;37327;54.254;18.504;2023-02-13T02:09:25;0;0;0
51258;PMS7003;37327;54.254;18.504;2023-02-13T02:12:36;1;0;0
51258;PMS7003;37327;54.254;18.504;2023-02-13T02:15:52;0;0;0
51258;PMS7003;37327;54.254;18.504;2023-02-13T02:19:03;2;0;0
51258;PMS7003;37327;54.254;18.504;2023-02-13T02:25:41;0;0;0
51258;PMS7003;37327;54.254;18.504;2023-02-13T02:35:34;0;0;0
51258;PMS7003;37327;54.254;18.504;2023-02-13T02:45:34;0;0;0
51258;PMS7003;37327;54.254;18.504;2023-02-13T02:52:17;1;0;0
51258;PMS7003;37327;54.254;18.504;2023-02-13T02:55:37;1;1;0
51258;PMS7003;37327;54.254;18.504;2023-02-13T02:58:56;1;0;0
51258;PMS7003;37327;54.254;18.504;2023-02-13T03:02:23;0;0;0
51258;PMS7003;37327;54.254;18.504;2023-02-13T03:05:43;0;0;0
51258;PMS7003;37327;54.254;18.504;2023-02-13T03:09:05;0;0;0
51258;PMS7003;37327;54.254;18.504;2023-02-13T03:16:01;1;0;0
51258;PMS7003;37327;54.254;18.504;2023-02-13T03:22:57;2;0;0
51258;PMS7003;37327;54.254;18.504;2023-02-13T03:39:59;0;0;0
51258;PMS7003;37327;54.254;18.504;2023-02-13T03:43:13;0;0;0
51258;PMS7003;37327;54.254;18.504;2023-02-13T03:46:24;0;0;0
51258;PMS7003;37327;54.254;18.504;2023-02-13T03:49:35;0;0;0
51258;PMS7003;37327;54.254;18.504;2023-02-13T03:56:13;0;0;0
51258;PMS7003;37327;54.254;18.504;2023-02-13T03:59:36;0;0;0
51258;PMS7003;37327;54.254;18.504;2023-02-13T04:02:48;0;0;0
51258;PMS7003;37327;54.254;18.504;2023-02-13T04:06:03;0;0;0
51258;PMS7003;37327;54.254;18.504;2023-02-13T04:09:17;0;0;0
51258;PMS7003;37327;54.254;18.504;2023-02-13T04:18:57;0;0;0
51258;PMS7003;37327;54.254;18.504;2023-02-13T04:22:06;0;0;0
51258;PMS7003;37327;54.254;18.504;2023-02-13T04:25:15;0;0;0
51258;PMS7003;37327;54.254;18.504;2023-02-13T04:28:23;0;0;0
51258;PMS7003;37327;54.254;18.504;2023-02-13T04:31:30;0;0;0
51258;PMS7003;37327;54.254;18.504;2023-02-13T04:34:38;1;0;0
51258;PMS7003;37327;54.254;18.504;2023-02-13T04:37:44;0;0;0
51258;PMS7003;37327;54.254;18.504;2023-02-13T04:40:51;0;0;0
51258;PMS7003;37327;54.254;18.504;2023-02-13T04:43:58;1;0;0
51258;PMS7003;37327;54.254;18.504;2023-02-13T04:47:05;1;0;0
51258;PMS7003;37327;54.254;18.504;2023-02-13T04:50:12;0;0;0
51258;PMS7003;37327;54.254;18.504;2023-02-13T04:53:19;0;0;0
51258;PMS7003;37327;54.254;18.504;2023-02-13T04:56:26;0;0;0
51258;PMS7003;37327;54.254;18.504;2023-02-13T04:59:33;0;0;0
51258;PMS7003;37327;54.254;18.504;2023-02-13T05:02:40;1;0;0
51258;PMS7003;37327;54.254;18.504;2023-02-13T05:05:47;0;0;0
51258;PMS7003;37327;54.254;18.504;2023-02-13T05:08:54;1;0;0
51258;PMS7003;37327;54.254;18.504;2023-02-13T05:12:04;2;0;0
51258;PMS7003;37327;54.254;18.504;2023-02-13T05:15:12;0;0;0
51258;PMS7003;37327;54.254;18.504;2023-02-13T05:18:19;1;0;0
51258;PMS7003;37327;54.254;18.504;2023-02-13T05:21:26;1;1;1
51258;PMS7003;37327;54.254;18.504;2023-02-13T05:24:44;0;0;0
51258;PMS7003;37327;54.254;18.504;2023-02-13T05:27:51;0;0;0
51258;PMS7003;37327;54.254;18.504;2023-02-13T05:30:58;0;0;0
51258;PMS7003;37327;54.254;18.504;2023-02-13T05:34:05;0;0;0
51258;PMS7003;37327;54.254;18.504;2023-02-13T05:37:12;0;0;0
51258;PMS7003;37327;54.254;18.504;2023-02-13T05:40:20;0;0;0
51258;PMS7003;37327;54.254;18.504;2023-02-13T05:43:27;0;0;0
51258;PMS7003;37327;54.254;18.504;2023-02-13T05:46:38;0;0;0
51258;PMS7003;37327;54.254;18.504;2023-02-13T05:49:46;1;0;0
51258;PMS7003;37327;54.254;18.504;2023-02-13T05:52:52;0;0;0
51258;PMS7003;37327;54.254;18.504;2023-02-13T05:56:00;0;0;0
51258;PMS7003;37327;54.254;18.504;2023-02-13T05:59:09;0;0;0
51258;PMS7003;37327;54.254;18.504;2023-02-13T06:02:15;0;0;0
51258;PMS7003;37327;54.254;18.504;2023-02-13T06:05:22;0;0;0
51258;PMS7003;37327;54.254;18.504;2023-02-13T06:08:29;0;0;0
51258;PMS7003;37327;54.254;18.504;2023-02-13T06:11:36;0;0;0
51258;PMS7003;37327;54.254;18.504;2023-02-13T06:14:42;1;0;0
51258;PMS7003;37327;54.254;18.504;2023-02-13T06:17:49;0;0;0
51258;PMS7003;37327;54.254;18.504;2023-02-13T06:20:56;1;0;0
51258;PMS7003;37327;54.254;18.504;2023-02-13T06:24:04;0;0;0
51258;PMS7003;37327;54.254;18.504;2023-02-13T06:27:12;0;0;0
51258;PMS7003;37327;54.254;18.504;2023-02-13T06:30:19;0;0;0
51258;PMS7003;37327;54.254;18.504;2023-02-13T06:33:27;0;0;0
51258;PMS7003;37327;54.254;18.504;2023-02-13T06:36:34;0;0;0
51258;PMS7003;37327;54.254;18.504;2023-02-13T06:39:43;0;0;0
51258;PMS7003;37327;54.254;18.504;2023-02-13T06:42:51;0;0;0
51258;PMS7003;37327;54.254;18.504;2023-02-13T06:45:58;0;0;0
51258;PMS7003;37327;54.254;18.504;2023-02-13T06:49:05;2;0;0
51258;PMS7003;37327;54.254;18.504;2023-02-13T06:52:12;0;0;0
51258;PMS7003;37327;54.254;18.504;2023-02-13T06:55:22;0;0;0
51258;PMS7003;37327;54.254;18.504;2023-02-13T06:58:28;0;0;0
51258;PMS7003;37327;54.254;18.504;2023-02-13T07:01:35;2;0;0
51258;PMS7003;37327;54.254;18.504;2023-02-13T07:04:42;0;0;0
51258;PMS7003;37327;54.254;18.504;2023-02-13T07:07:49;0;0;0
51258;PMS7003;37327;54.254;18.504;2023-02-13T07:10:56;0;0;0
51258;PMS7003;37327;54.254;18.504;2023-02-13T07:14:03;0;0;0
51258;PMS7003;37327;54.254;18.504;2023-02-13T07:17:11;0;0;0
51258;PMS7003;37327;54.254;18.504;2023-02-13T07:20:18;2;0;0
51258;PMS7003;37327;54.254;18.504;2023-02-13T07:23:25;0;0;0
51258;PMS7003;37327;54.254;18.504;2023-02-13T07:26:32;0;0;0
51258;PMS7003;37327;54.254;18.504;2023-02-13T07:29:38;0;0;0
51258;PMS7003;37327;54.254;18.504;2023-02-13T07:32:45;1;0;0
51258;PMS7003;37327;54.254;18.504;2023-02-13T07:35:52;1;0;0
51258;PMS7003;37327;54.254;18.504;2023-02-13T07:38:59;0;0;0
51258;PMS7003;37327;54.254;18.504;2023-02-13T07:42:06;0;0;0
51258;PMS7003;37327;54.254;18.504;2023-02-13T07:45:14;0;0;0
51258;PMS7003;37327;54.254;18.504;2023-02-13T07:48:21;1;0;0
51258;PMS7003;37327;54.254;18.504;2023-02-13T07:51:31;0;0;0
51258;PMS7003;37327;54.254;18.504;2023-02-13T07:54:38;0;0;0
51258;PMS7003;37327;54.254;18.504;2023-02-13T07:57:53;0;0;0
51258;PMS7003;37327;54.254;18.504;2023-02-13T08:04:14;0;0;0
51258;PMS7003;37327;54.254;18.504;2023-02-13T08:07:21;0;0;0
51258;PMS7003;37327;54.254;18.504;2023-02-13T08:10:28;0;0;0
51258;PMS7003;37327;54.254;18.504;2023-02-13T08:13:46;0;0;0
51258;PMS7003;37327;54.254;18.504;2023-02-13T08:16:53;1;0;0
51258;PMS7003;37327;54.254;18.504;2023-02-13T08:20:01;0;0;0
51258;PMS7003;37327;54.254;18.504;2023-02-13T08:23:09;0;0;0
51258;PMS7003;37327;54.254;18.504;2023-02-13T08:26:17;0;0;0
51258;PMS7003;37327;54.254;18.504;2023-02-13T08:29:24;1;0;0
51258;PMS7003;37327;54.254;18.504;2023-02-13T08:32:31;0;0;0
51258;PMS7003;37327;54.254;18.504;2023-02-13T08:35:38;0;0;0
51258;PMS7003;37327;54.254;18.504;2023-02-13T08:38:47;0;0;0
51258;PMS7003;37327;54.254;18.504;2023-02-13T08:41:54;0;0;0
51258;PMS7003;37327;54.254;18.504;2023-02-13T08:45:01;1;0;0
51258;PMS7003;37327;54.254;18.504;2023-02-13T08:48:09;0;0;0
51258;PMS7003;37327;54.254;18.504;2023-02-13T08:51:15;1;0;0
51258;PMS7003;37327;54.254;18.504;2023-02-13T08:54:23;0;0;0
51258;PMS7003;37327;54.254;18.504;2023-02-13T08:57:30;0;0;0
51258;PMS7003;37327;54.254;18.504;2023-02-13T09:00:37;1;0;0
51258;PMS7003;37327;54.254;18.504;2023-02-13T09:03:44;0;0;0
51258;PMS7003;37327;54.254;18.504;2023-02-13T09:06:51;0;0;0
51258;PMS7003;37327;54.254;18.504;2023-02-13T09:09:58;1;0;0
51258;PMS7003;37327;54.254;18.504;2023-02-13T09:13:05;0;0;0
51258;PMS7003;37327;54.254;18.504;2023-02-13T09:16:12;0;0;0
51258;PMS7003;37327;54.254;18.504;2023-02-13T09:19:19;0;0;0
51258;PMS7003;37327;54.254;18.504;2023-02-13T09:22:27;0;0;0
51258;PMS7003;37327;54.254;18.504;2023-02-13T09:25:34;0;0;0
51258;PMS7003;37327;54.254;18.504;2023-02-13T09:28:42;1;0;0
51258;PMS7003;37327;54.254;18.504;2023-02-13T09:31:52;0;0;0
51258;PMS7003;37327;54.254;18.504;2023-02-13T09:34:59;0;0;0
51258;PMS7003;37327;54.254;18.504;2023-02-13T09:38:06;0;0;0
51258;PMS7003;37327;54.254;18.504;2023-02-13T09:41:14;0;0;0
51258;PMS7003;37327;54.254;18.504;2023-02-13T09:44:34;1;0;0
51258;PMS7003;37327;54.254;18.504;2023-02-13T09:47:48;1;0;0
51258;PMS7003;37327;54.254;18.504;2023-02-13T09:50:56;0;0;0
51258;PMS7003;37327;54.254;18.504;2023-02-13T09:54:04;1;0;0
51258;PMS7003;37327;54.254;18.504;2023-02-13T09:57:19;0;0;0
51258;PMS7003;37327;54.254;18.504;2023-02-13T10:00:43;0;0;0
51258;PMS7003;37327;54.254;18.504;2023-02-13T10:03:53;0;0;0
51258;PMS7003;37327;54.254;18.504;2023-02-13T10:10:33;0;0;0
51258;PMS7003;37327;54.254;18.504;2023-02-13T10:13:50;0;0;0
51258;PMS7003;37327;54.254;18.504;2023-02-13T10:17:05;0;0;0
51258;PMS7003;37327;54.254;18.504;2023-02-13T10:26:55;1;0;0
51258;PMS7003;37327;54.254;18.504;2023-02-13T10:36:47;0;0;0
51258;PMS7003;37327;54.254;18.504;2023-02-13T10:39:54;0;0;0
51258;PMS7003;37327;54.254;18.504;2023-02-13T10:43:10;2;0;0
51258;PMS7003;37327;54.254;18.504;2023-02-13T10:46:19;0;0;0
51258;PMS7003;37327;54.254;18.504;2023-02-13T10:59:39;0;0;0
51258;PMS7003;37327;54.254;18.504;2023-02-13T11:02:54;0;0;0
51258;PMS7003;37327;54.254;18.504;2023-02-13T11:06:04;0;0;0
51258;PMS7003;37327;54.254;18.504;2023-02-13T11:09:14;0;0;0
51258;PMS7003;37327;54.254;18.504;2023-02-13T11:12:26;0;0;0
51258;PMS7003;37327;54.254;18.504;2023-02-13T11:15:38;0;0;0
51258;PMS7003;37327;54.254;18.504;2023-02-13T11:18:48;0;0;0
51258;PMS7003;37327;54.254;18.504;2023-02-13T11:25:19;0;0;0
51258;PMS7003;37327;54.254;18.504;2023-02-13T11:28:33;0;0;0
51258;PMS7003;37327;54.254;18.504;2023-02-13T11:31:43;0;0;0
51258;PMS7003;37327;54.254;18.504;2023-02-13T11:34:50;0;0;0
51258;PMS7003;37327;54.254;18.504;2023-02-13T11:41:17;0;0;0
51258;PMS7003;37327;54.254;18.504;2023-02-13T11:44:29;0;0;0
51258;PMS7003;37327;54.254;18.504;2023-02-13T11:47:39;0;0;0
51258;PMS7003;37327;54.254;18.504;2023-02-13T11:50:51;0;0;0
51258;PMS7003;37327;54.254;18.504;2023-02-13T11:54:00;1;0;0
51258;PMS7003;37327;54.254;18.504;2023-02-13T12:00:31;0;0;0
51258;PMS7003;37327;54.254;18.504;2023-02-13T12:03:44;0;0;0
51258;PMS7003;37327;54.254;18.504;2023-02-13T12:07:02;0;0;0
51258;PMS7003;37327;54.254;18.504;2023-02-13T12:13:36;0;0;0
51258;PMS7003;37327;54.254;18.504;2023-02-13T12:16:45;0;0;0
51258;PMS7003;37327;54.254;18.504;2023-02-13T12:19:56;0;0;0
51258;PMS7003;37327;54.254;18.504;2023-02-13T12:26:25;0;0;0
51258;PMS7003;37327;54.254;18.504;2023-02-13T12:36:23;0;0;0
51258;PMS7003;37327;54.254;18.504;2023-02-13T12:39:40;0;0;0
51258;PMS7003;37327;54.254;18.504;2023-02-13T12:49:42;0;0;0
51258;PMS7003;37327;54.254;18.504;2023-02-13T12:53:00;0;0;0
51258;PMS7003;37327;54.254;18.504;2023-02-13T13:00:17;0;0;0
51258;PMS7003;37327;54.254;18.504;2023-02-13T13:06:12;0;0;0
51258;PMS7003;37327;54.254;18.504;2023-02-13T13:16:33;0;0;0
51258;PMS7003;37327;54.254;18.504;2023-02-13T13:22:49;0;0;0
51258;PMS7003;37327;54.254;18.504;2023-02-13T13:29:20;0;0;0
51258;PMS7003;37327;54.254;18.504;2023-02-13T13:32:31;0;0;0
51258;PMS7003;37327;54.254;18.504;2023-02-13T13:35:41;0;0;0
51258;PMS7003;37327;54.254;18.504;2023-02-13T13:52:10;0;0;0
51258;PMS7003;37327;54.254;18.504;2023-02-13T13:58:45;0;0;0
51258;PMS7003;37327;54.254;18.504;2023-02-13T14:05:18;0;0;0
51258;PMS7003;37327;54.254;18.504;2023-02-13T14:11:49;0;0;0
51258;PMS7003;37327;54.254;18.504;2023-02-13T14:14:56;0;0;0
51258;PMS7003;37327;54.254;18.504;2023-02-13T14:21:24;0;0;0
51258;PMS7003;37327;54.254;18.504;2023-02-13T14:24:31;0;0;0
51258;PMS7003;37327;54.254;18.504;2023-02-13T14:27:41;0;0;0
51258;PMS7003;37327;54.254;18.504;2023-02-13T14:30:48;0;0;0
51258;PMS7003;37327;54.254;18.504;2023-02-13T14:40:54;0;0;0
51258;PMS7003;37327;54.254;18.504;2023-02-13T14:43:54;0;0;0
51258;PMS7003;37327;54.254;18.504;2023-02-13T14:53:40;0;0;0
51258;PMS7003;37327;54.254;18.504;2023-02-13T14:56:53;0;0;0
51258;PMS7003;37327;54.254;18.504;2023-02-13T15:03:36;0;0;0
51258;PMS7003;37327;54.254;18.504;2023-02-13T15:06:50;0;0;0
51258;PMS7003;37327;54.254;18.504;2023-02-13T15:13:20;0;0;0
51258;PMS7003;37327;54.254;18.504;2023-02-13T15:16:32;0;0;0
51258;PMS7003;37327;54.254;18.504;2023-02-13T15:19:42;0;0;0
51258;PMS7003;37327;54.254;18.504;2023-02-13T15:22:54;1;0;0
51258;PMS7003;37327;54.254;18.504;2023-02-13T15:26:04;0;0;0
51258;PMS7003;37327;54.254;18.504;2023-02-13T15:29:14;0;0;0
51258;PMS7003;37327;54.254;18.504;2023-02-13T15:32:33;1;0;0
51258;PMS7003;37327;54.254;18.504;2023-02-13T15:35:38;0;0;0
51258;PMS7003;37327;54.254;18.504;2023-02-13T15:38:46;1;0;0
51258;PMS7003;37327;54.254;18.504;2023-02-13T15:41:54;0;0;0
51258;PMS7003;37327;54.254;18.504;2023-02-13T15:45:04;0;0;0
51258;PMS7003;37327;54.254;18.504;2023-02-13T15:48:17;1;0;0
51258;PMS7003;37327;54.254;18.504;2023-02-13T15:51:25;1;1;1
51258;PMS7003;37327;54.254;18.504;2023-02-13T15:54:36;2;0;0
51258;PMS7003;37327;54.254;18.504;2023-02-13T15:57:53;0;0;0
51258;PMS7003;37327;54.254;18.504;2023-02-13T16:01:04;0;0;0
51258;PMS7003;37327;54.254;18.504;2023-02-13T16:04:14;0;0;0
51258;PMS7003;37327;54.254;18.504;2023-02-13T16:07:23;0;0;0
51258;PMS7003;37327;54.254;18.504;2023-02-13T16:10:33;2;1;0
51258;PMS7003;37327;54.254;18.504;2023-02-13T16:17:04;0;0;0
51258;PMS7003;37327;54.254;18.504;2023-02-13T16:23:30;0;0;0
51258;PMS7003;37327;54.254;18.504;2023-02-13T16:26:37;3;2;1
51258;PMS7003;37327;54.254;18.504;2023-02-13T16:36:27;4;1;1
51258;PMS7003;37327;54.254;18.504;2023-02-13T16:39:34;3;1;1
51258;PMS7003;37327;54.254;18.504;2023-02-13T16:42:41;1;1;1
51258;PMS7003;37327;54.254;18.504;2023-02-13T16:45:48;3;2;2
51258;PMS7003;37327;54.254;18.504;2023-02-13T16:52:17;2;1;1
51258;PMS7003;37327;54.254;18.504;2023-02-13T16:55:33;2;2;2
51258;PMS7003;37327;54.254;18.504;2023-02-13T16:58:40;2;2;1
51258;PMS7003;37327;54.254;18.504;2023-02-13T17:02:01;5;3;2
51258;PMS7003;37327;54.254;18.504;2023-02-13T17:08:25;4;1;1
51258;PMS7003;37327;54.254;18.504;2023-02-13T17:11:33;5;3;2
51258;PMS7003;37327;54.254;18.504;2023-02-13T17:14:40;2;2;2
51258;PMS7003;37327;54.254;18.504;2023-02-13T17:17:47;3;1;1
51258;PMS7003;37327;54.254;18.504;2023-02-13T17:21:01;3;3;3
51258;PMS7003;37327;54.254;18.504;2023-02-13T17:24:09;2;2;2
51258;PMS7003;37327;54.254;18.504;2023-02-13T17:27:22;2;1;1
51258;PMS7003;37327;54.254;18.504;2023-02-13T17:30:30;2;2;2
51258;PMS7003;37327;54.254;18.504;2023-02-13T17:33:38;0;0;0
51258;PMS7003;37327;54.254;18.504;2023-02-13T17:36:46;2;2;1
51258;PMS7003;37327;54.254;18.504;2023-02-13T17:39:53;2;2;2
51258;PMS7003;37327;54.254;18.504;2023-02-13T17:43:00;3;3;3
51258;PMS7003;37327;54.254;18.504;2023-02-13T17:46:07;3;1;1
51258;PMS7003;37327;54.254;18.504;2023-02-13T17:49:14;4;2;1
51258;PMS7003;37327;54.254;18.504;2023-02-13T17:52:23;2;2;2
51258;PMS7003;37327;54.254;18.504;2023-02-13T17:55:34;2;1;1
51258;PMS7003;37327;54.254;18.504;2023-02-13T17:58:40;3;2;2
51258;PMS7003;37327;54.254;18.504;2023-02-13T18:01:48;2;2;1
51258;PMS7003;37327;54.254;18.504;2023-02-13T18:04:54;2;2;1
51258;PMS7003;37327;54.254;18.504;2023-02-13T18:08:01;3;1;1
51258;PMS7003;37327;54.254;18.504;2023-02-13T18:11:09;3;3;3
51258;PMS7003;37327;54.254;18.504;2023-02-13T18:14:17;1;1;1
51258;PMS7003;37327;54.254;18.504;2023-02-13T18:17:24;2;1;1
51258;PMS7003;37327;54.254;18.504;2023-02-13T18:20:31;3;1;1
51258;PMS7003;37327;54.254;18.504;2023-02-13T18:23:39;2;1;1
51258;PMS7003;37327;54.254;18.504;2023-02-13T18:26:46;1;1;1
51258;PMS7003;37327;54.254;18.504;2023-02-13T18:29:53;2;2;1
51258;PMS7003;37327;54.254;18.504;2023-02-13T18:33:00;3;2;2
51258;PMS7003;37327;54.254;18.504;2023-02-13T18:36:10;2;1;1
51258;PMS7003;37327;54.254;18.504;2023-02-13T18:39:18;2;1;1
51258;PMS7003;37327;54.254;18.504;2023-02-13T18:42:25;2;2;2
51258;PMS7003;37327;54.254;18.504;2023-02-13T18:45:32;1;1;1
51258;PMS7003;37327;54.254;18.504;2023-02-13T18:48:40;2;2;1
51258;PMS7003;37327;54.254;18.504;2023-02-13T18:51:47;3;3;3
51258;PMS7003;37327;54.254;18.504;2023-02-13T18:54:54;1;1;1
51258;PMS7003;37327;54.254;18.504;2023-02-13T18:58:06;3;3;3
51258;PMS7003;37327;54.254;18.504;2023-02-13T19:01:14;3;3;1
51258;PMS7003;37327;54.254;18.504;2023-02-13T19:04:24;3;3;3
51258;PMS7003;37327;54.254;18.504;2023-02-13T19:07:31;4;3;2
51258;PMS7003;37327;54.254;18.504;2023-02-13T19:10:38;7;3;3
51258;PMS7003;37327;54.254;18.504;2023-02-13T19:13:45;3;2;1
51258;PMS7003;37327;54.254;18.504;2023-02-13T19:16:52;3;2;2
51258;PMS7003;37327;54.254;18.504;2023-02-13T19:19:59;1;1;1
51258;PMS7003;37327;54.254;18.504;2023-02-13T19:23:06;3;2;2
51258;PMS7003;37327;54.254;18.504;2023-02-13T19:26:14;3;3;2
51258;PMS7003;37327;54.254;18.504;2023-02-13T19:29:22;3;3;2
51258;PMS7003;37327;54.254;18.504;2023-02-13T19:32:29;2;2;1
51258;PMS7003;37327;54.254;18.504;2023-02-13T19:35:36;3;3;3
51258;PMS7003;37327;54.254;18.504;2023-02-13T19:38:44;5;4;3
51258;PMS7003;37327;54.254;18.504;2023-02-13T19:41:52;5;2;2
51258;PMS7003;37327;54.254;18.504;2023-02-13T19:44:58;3;3;3
51258;PMS7003;37327;54.254;18.504;2023-02-13T19:48:05;5;4;3
51258;PMS7003;37327;54.254;18.504;2023-02-13T19:51:12;2;2;2
51258;PMS7003;37327;54.254;18.504;2023-02-13T19:54:21;2;2;2
51258;PMS7003;37327;54.254;18.504;2023-02-13T19:57:28;3;3;2
51258;PMS7003;37327;54.254;18.504;2023-02-13T20:00:35;4;4;2
51258;PMS7003;37327;54.254;18.504;2023-02-13T20:03:42;2;2;2
51258;PMS7003;37327;54.254;18.504;2023-02-13T20:06:49;2;2;2
51258;PMS7003;37327;54.254;18.504;2023-02-13T20:10:03;4;2;1
51258;PMS7003;37327;54.254;18.504;2023-02-13T20:13:11;4;1;1
51258;PMS7003;37327;54.254;18.504;2023-02-13T20:16:18;3;2;2
51258;PMS7003;37327;54.254;18.504;2023-02-13T20:19:27;6;3;3
51258;PMS7003;37327;54.254;18.504;2023-02-13T20:22:35;1;1;1
51258;PMS7003;37327;54.254;18.504;2023-02-13T20:25:43;2;2;1
51258;PMS7003;37327;54.254;18.504;2023-02-13T20:28:50;2;1;1
51258;PMS7003;37327;54.254;18.504;2023-02-13T20:31:57;3;1;1
51258;PMS7003;37327;54.254;18.504;2023-02-13T20:35:05;3;3;2
51258;PMS7003;37327;54.254;18.504;2023-02-13T20:38:13;3;2;2
51258;PMS7003;37327;54.254;18.504;2023-02-13T20:41:20;2;2;2
51258;PMS7003;37327;54.254;18.504;2023-02-13T20:44:30;2;2;2
51258;PMS7003;37327;54.254;18.504;2023-02-13T20:47:37;1;1;1
51258;PMS7003;37327;54.254;18.504;2023-02-13T20:50:55;3;1;1
51258;PMS7003;37327;54.254;18.504;2023-02-13T20:54:04;3;2;1
51258;PMS7003;37327;54.254;18.504;2023-02-13T20:57:22;2;1;1
51258;PMS7003;37327;54.254;18.504;2023-02-13T21:00:29;1;1;1
51258;PMS7003;37327;54.254;18.504;2023-02-13T21:03:36;2;2;1
51258;PMS7003;37327;54.254;18.504;2023-02-13T21:06:43;1;1;1
51258;PMS7003;37327;54.254;18.504;2023-02-13T21:09:52;2;1;1
51258;PMS7003;37327;54.254;18.504;2023-02-13T21:12:58;1;1;0
51258;PMS7003;37327;54.254;18.504;2023-02-13T21:16:10;2;1;1
51258;PMS7003;37327;54.254;18.504;2023-02-13T21:19:22;1;1;1
51258;PMS7003;37327;54.254;18.504;2023-02-13T21:22:29;1;0;0
51258;PMS7003;37327;54.254;18.504;2023-02-13T21:25:37;3;1;1
51258;PMS7003;37327;54.254;18.504;2023-02-13T21:28:44;0;0;0
51258;PMS7003;37327;54.254;18.504;2023-02-13T21:31:53;2;1;1
51258;PMS7003;37327;54.254;18.504;2023-02-13T21:35:00;0;0;0
51258;PMS7003;37327;54.254;18.504;2023-02-13T21:38:07;3;2;2
51258;PMS7003;37327;54.254;18.504;2023-02-13T21:41:15;0;0;0
51258;PMS7003;37327;54.254;18.504;2023-02-13T21:44:24;1;1;1
51258;PMS7003;37327;54.254;18.504;2023-02-13T21:47:31;4;1;1
51258;PMS7003;37327;54.254;18.504;2023-02-13T21:52:00;2;1;1
51258;PMS7003;37327;54.254;18.504;2023-02-13T21:55:07;1;1;0
51258;PMS7003;37327;54.254;18.504;2023-02-13T21:58:14;2;0;0
51258;PMS7003;37327;54.254;18.504;2023-02-13T22:01:22;0;0;0
51258;PMS7003;37327;54.254;18.504;2023-02-13T22:04:31;4;3;2
51258;PMS7003;37327;54.254;18.504;2023-02-13T22:07:38;1;1;1
51258;PMS7003;37327;54.254;18.504;2023-02-13T22:10:56;3;1;1
51258;PMS7003;37327;54.254;18.504;2023-02-13T22:14:05;5;4;1
51258;PMS7003;37327;54.254;18.504;2023-02-13T22:17:13;3;1;1
51258;PMS7003;37327;54.254;18.504;2023-02-13T22:20:20;1;0;0
51258;PMS7003;37327;54.254;18.504;2023-02-13T22:23:30;2;1;1
51258;PMS7003;37327;54.254;18.504;2023-02-13T22:26:39;1;0;0
51258;PMS7003;37327;54.254;18.504;2023-02-13T22:29:50;1;1;1
51258;PMS7003;37327;54.254;18.504;2023-02-13T22:32:56;1;1;1
51258;PMS7003;37327;54.254;18.504;2023-02-13T22:36:04;0;0;0
51258;PMS7003;37327;54.254;18.504;2023-02-13T22:39:12;1;1;1
51258;PMS7003;37327;54.254;18.504;2023-02-13T22:42:19;2;2;1
51258;PMS7003;37327;54.254;18.504;2023-02-13T22:45:27;3;1;1
51258;PMS7003;37327;54.254;18.504;2023-02-13T22:48:34;2;2;2
51258;PMS7003;37327;54.254;18.504;2023-02-13T22:51:42;1;1;1
51258;PMS7003;37327;54.254;18.504;2023-02-13T22:54:49;1;1;1
51258;PMS7003;37327;54.254;18.504;2023-02-13T22:57:56;3;1;1
51258;PMS7003;37327;54.254;18.504;2023-02-13T23:04:20;5;2;0
51258;PMS7003;37327;54.254;18.504;2023-02-13T23:07:27;2;1;1
51258;PMS7003;37327;54.254;18.504;2023-02-13T23:10:34;1;1;0
51258;PMS7003;37327;54.254;18.504;2023-02-13T23:13:44;1;1;1
51258;PMS7003;37327;54.254;18.504;2023-02-13T23:16:50;2;0;0
51258;PMS7003;37327;54.254;18.504;2023-02-13T23:20:10;1;1;0
51258;PMS7003;37327;54.254;18.504;2023-02-13T23:23:17;2;1;0
51258;PMS7003;37327;54.254;18.504;2023-02-13T23:26:25;2;1;0
51258;PMS7003;37327;54.254;18.504;2023-02-13T23:29:32;1;1;1
51258;PMS7003;37327;54.254;18.504;2023-02-13T23:32:39;1;0;0
51258;PMS7003;37327;54.254;18.504;2023-02-13T23:35:46;1;1;1
51258;PMS7003;37327;54.254;18.504;2023-02-13T23:38:53;1;1;1
51258;PMS7003;37327;54.254;18.504;2023-02-13T23:42:00;1;1;1
51258;PMS7003;37327;54.254;18.504;2023-02-13T23:45:08;5;2;1
51258;PMS7003;37327;54.254;18.504;2023-02-13T23:48:16;4;2;1
51258;PMS7003;37327;54.254;18.504;2023-02-13T23:51:23;1;1;1
51258;PMS7003;37327;54.254;18.504;2023-02-13T23:54:30;1;1;1
51258;PMS7003;37327;54.254;18.504;2023-02-13T23:57:37;0;0;0
